Time;durP1;ratioP1;P1;durP2;ratioP2;P2;SDS_P1;SDS_P2;PMS_P1;PMS_P2;Temp;Humidity;BMP_temperature;BMP_pressure;BME280_temperature;BME280_humidity;BME280_pressure;Samples;Min_cycle;Max_cycle;Signal;HPM_P1;HPM_P2
2022/06/24 00:02:00;;;;;;;;;;;26.50;47.60;;;;;;1544566;75;683;-67
2022/06/24 00:04:02;;;;;;;;;;;26.50;47.50;;;;;;1548567;75;789;-67
2022/06/24 00:06:06;;;;;;;;;;;26.50;47.60;;;;;;1544851;76;762;-66
2022/06/24 00:08:08;;;;;;;;;;;26.50;47.50;;;;;;1532200;75;1844;-68
2022/06/24 00:10:16;;;;;;;;;;;26.50;47.60;;;;;;1538248;75;816;-69
2022/06/24 00:12:20;;;;;;;;;;;26.50;47.60;;;;;;1558478;75;756;-68
2022/06/24 00:14:23;;;;;;;;;;;26.50;47.60;;;;;;1543360;75;795;-67
2022/06/24 00:16:25;;;;;;;;;;;26.40;47.60;;;;;;1530267;75;851;-67
2022/06/24 00:18:27;;;;;;;;;;;26.50;47.60;;;;;;1534928;75;1173;-67
2022/06/24 00:20:29;;;;;;;;;;;26.40;47.50;;;;;;1543560;75;1957;-68
2022/06/24 00:22:31;;;;;;;;;;;26.50;47.50;;;;;;1540922;75;689;-69
2022/06/24 00:24:33;;;;;;;;;;;26.40;47.50;;;;;;1545657;75;675;-68
2022/06/24 00:26:40;;;;;;;;;;;26.50;47.50;;;;;;1539623;75;688;-67
2022/06/24 00:28:41;;;;;;;;;;;26.50;47.50;;;;;;1534496;75;1157;-68
2022/06/24 00:30:45;;;;;;;;;;;26.40;47.50;;;;;;1537091;75;714;-69
2022/06/24 00:32:47;;;;;;;;;;;26.50;47.50;;;;;;1547074;75;1842;-67
2022/06/24 00:34:50;;;;;;;;;;;26.50;47.50;;;;;;1542335;75;747;-66
2022/06/24 00:36:52;;;;;;;;;;;26.50;47.40;;;;;;1533606;75;1449;-68
2022/06/24 00:38:54;;;;;;;;;;;26.50;47.40;;;;;;1546761;75;1939;-68
2022/06/24 00:40:57;;;;;;;;;;;26.50;47.50;;;;;;1554297;75;772;-67
2022/06/24 00:42:59;;;;;;;;;;;26.50;47.50;;;;;;1544126;75;661;-67
2022/06/24 00:45:02;;;;;;;;;;;26.50;47.40;;;;;;1541616;75;811;-67
2022/06/24 00:47:04;;;;;;;;;;;26.50;47.50;;;;;;1547907;75;634;-67
2022/06/24 00:49:06;;;;;;;;;;;26.40;47.50;;;;;;1547211;75;1165;-67
2022/06/24 00:51:08;;;;;;;;;;;26.50;47.50;;;;;;1539898;75;1699;-67
2022/06/24 00:53:10;;;;;;;;;;;26.40;47.50;;;;;;1545535;75;819;-67
2022/06/24 00:55:12;;;;;;;;;;;26.50;47.50;;;;;;1542451;75;763;-68
2022/06/24 00:57:14;;;;;;;;;;;26.50;47.50;;;;;;1510691;77;1180;-65
2022/06/24 00:59:15;;;;;;;;;;;26.40;47.50;;;;;;1515077;77;1938;-68
2022/06/24 01:01:17;;;;;;;;;;;26.40;47.50;;;;;;1544917;75;694;-67
2022/06/24 01:03:19;;;;;;;;;;;26.50;47.50;;;;;;1538874;75;704;-67
2022/06/24 01:05:21;;;;;;;;;;;26.40;47.50;;;;;;1544830;75;638;-68
2022/06/24 01:07:23;;;;;;;;;;;26.50;47.50;;;;;;1549552;75;695;-67
2022/06/24 01:09:25;;;;;;;;;;;26.50;47.50;;;;;;1556926;72;2095;-71
2022/06/24 01:11:27;;;;;;;;;;;26.40;47.40;;;;;;1538892;76;649;-72
2022/06/24 01:13:29;;;;;;;;;;;26.50;47.40;;;;;;1530193;76;653;-71
2022/06/24 01:15:31;;;;;;;;;;;26.40;47.40;;;;;;1542339;76;721;-72
2022/06/24 01:17:33;;;;;;;;;;;26.50;47.40;;;;;;1560875;74;715;-70
2022/06/24 01:19:35;;;;;;;;;;;26.50;47.40;;;;;;1530143;76;1945;-70
2022/06/24 01:21:38;;;;;;;;;;;26.50;47.40;;;;;;1560250;74;732;-71
2022/06/24 01:23:40;;;;;;;;;;;26.50;47.40;;;;;;1552006;74;579;-72
2022/06/24 01:25:42;;;;;;;;;;;26.50;47.40;;;;;;1541460;74;656;-71
2022/06/24 01:27:44;;;;;;;;;;;26.50;47.40;;;;;;1532207;76;662;-70
2022/06/24 01:29:46;;;;;;;;;;;26.40;47.40;;;;;;1548082;75;1145;-71
2022/06/24 01:31:48;;;;;;;;;;;26.50;47.40;;;;;;1551447;76;667;-72
2022/06/24 01:33:50;;;;;;;;;;;26.50;47.40;;;;;;1540844;76;656;-72
2022/06/24 01:35:52;;;;;;;;;;;26.50;47.40;;;;;;1578090;73;666;-71
2022/06/24 01:37:54;;;;;;;;;;;26.40;47.50;;;;;;1591282;73;701;-73
2022/06/24 01:39:56;;;;;;;;;;;26.40;47.40;;;;;;1585000;73;1935;-71
2022/06/24 01:41:58;;;;;;;;;;;26.40;47.40;;;;;;1590197;73;702;-73
2022/06/24 01:44:00;;;;;;;;;;;26.40;47.40;;;;;;1586118;73;626;-73
2022/06/24 01:46:02;;;;;;;;;;;26.40;47.40;;;;;;1584750;73;1444;-72
2022/06/24 01:48:04;;;;;;;;;;;26.50;47.40;;;;;;1587375;74;614;-72
2022/06/24 01:50:06;;;;;;;;;;;26.40;47.40;;;;;;1586871;73;1124;-72
2022/06/24 01:52:08;;;;;;;;;;;26.40;47.40;;;;;;1582410;73;580;-71
2022/06/24 01:54:10;;;;;;;;;;;26.40;47.40;;;;;;1575073;73;595;-72
2022/06/24 01:56:12;;;;;;;;;;;26.50;47.40;;;;;;1578236;73;560;-72
2022/06/24 01:58:14;;;;;;;;;;;26.40;47.40;;;;;;1575732;73;669;-73
2022/06/24 02:00:16;;;;;;;;;;;26.40;47.40;;;;;;1587982;73;1942;-72
2022/06/24 02:02:18;;;;;;;;;;;26.40;47.40;;;;;;1585206;73;693;-73
2022/06/24 02:04:20;;;;;;;;;;;26.40;47.40;;;;;;1580909;73;655;-72
2022/06/24 02:06:22;;;;;;;;;;;26.40;47.40;;;;;;1575645;73;639;-72
2022/06/24 02:08:24;;;;;;;;;;;26.40;47.40;;;;;;1587282;73;1160;-73
2022/06/24 02:15:06;;;;;;;;;;;26.40;47.30;;;;;;1581254;73;733;-73
2022/06/24 02:17:08;;;;;;;;;;;26.40;47.30;;;;;;1591120;73;676;-73
2022/06/24 02:19:10;;;;;;;;;;;26.40;47.30;;;;;;1590067;73;1157;-74
2022/06/24 02:21:12;;;;;;;;;;;26.40;47.40;;;;;;1595663;73;1918;-74
2022/06/24 02:23:14;;;;;;;;;;;26.40;47.30;;;;;;1587868;73;604;-74
2022/06/24 02:25:17;;;;;;;;;;;26.50;47.30;;;;;;1593786;73;566;-72
2022/06/24 02:27:19;;;;;;;;;;;26.40;47.30;;;;;;1591745;73;733;-74
2022/06/24 02:29:21;;;;;;;;;;;26.40;47.30;;;;;;1586203;73;1149;-73
2022/06/24 02:31:23;;;;;;;;;;;26.40;47.30;;;;;;1581748;73;860;-73
2022/06/24 02:33:25;;;;;;;;;;;26.50;47.30;;;;;;1587751;73;697;-73
2022/06/24 02:35:27;;;;;;;;;;;26.40;47.30;;;;;;1578846;73;651;-72
2022/06/24 02:37:29;;;;;;;;;;;26.40;47.30;;;;;;1589735;74;655;-73
2022/06/24 02:39:31;;;;;;;;;;;26.40;47.30;;;;;;1580991;73;1971;-73
2022/06/24 02:41:33;;;;;;;;;;;26.40;47.30;;;;;;1575078;73;667;-73
2022/06/24 02:43:35;;;;;;;;;;;26.40;47.30;;;;;;1583189;73;1466;-73
2022/06/24 02:45:37;;;;;;;;;;;26.50;47.30;;;;;;1590132;73;757;-72
2022/06/24 02:47:39;;;;;;;;;;;26.40;47.30;;;;;;1588788;73;658;-73
2022/06/24 02:49:41;;;;;;;;;;;26.40;47.30;;;;;;1594057;73;1151;-72
2022/06/24 02:51:43;;;;;;;;;;;26.40;47.30;;;;;;1587441;73;727;-71
2022/06/24 02:53:45;;;;;;;;;;;26.40;47.30;;;;;;1589630;73;803;-73
2022/06/24 02:55:48;;;;;;;;;;;26.40;47.20;;;;;;1589925;73;565;-73
2022/06/24 02:57:49;;;;;;;;;;;26.40;47.20;;;;;;1587990;73;674;-74
2022/06/24 02:59:51;;;;;;;;;;;26.40;47.20;;;;;;1595906;73;1942;-73
2022/06/24 03:01:53;;;;;;;;;;;26.50;47.20;;;;;;1583145;73;657;-73
2022/06/24 03:03:55;;;;;;;;;;;26.40;47.20;;;;;;1591947;73;688;-73
2022/06/24 03:05:57;;;;;;;;;;;26.50;47.20;;;;;;1588597;73;722;-73
2022/06/24 03:07:59;;;;;;;;;;;26.40;47.10;;;;;;1582356;73;657;-73
2022/06/24 03:10:01;;;;;;;;;;;26.40;47.20;;;;;;1583320;73;1103;-74
2022/06/24 03:12:03;;;;;;;;;;;26.40;47.20;;;;;;1592502;73;656;-74
2022/06/24 03:14:05;;;;;;;;;;;26.40;47.20;;;;;;1577466;73;706;-73
2022/06/24 03:16:06;;;;;;;;;;;26.40;47.10;;;;;;1581070;73;816;-73
2022/06/24 03:18:08;;;;;;;;;;;26.40;47.10;;;;;;1584668;75;640;-75
2022/06/24 03:20:10;;;;;;;;;;;26.40;47.20;;;;;;1580019;73;1943;-73
2022/06/24 03:22:12;;;;;;;;;;;26.50;47.10;;;;;;1577968;73;564;-73
2022/06/24 03:24:14;;;;;;;;;;;26.40;47.20;;;;;;1579307;73;710;-74
2022/06/24 03:26:16;;;;;;;;;;;26.40;47.10;;;;;;1585658;73;636;-72
2022/06/24 03:28:18;;;;;;;;;;;26.40;47.10;;;;;;1567699;73;1094;-71
2022/06/24 03:30:20;;;;;;;;;;;26.40;47.20;;;;;;1580431;74;615;-71
2022/06/24 03:32:21;;;;;;;;;;;26.40;47.10;;;;;;1587189;74;714;-72
2022/06/24 03:34:23;;;;;;;;;;;26.40;47.10;;;;;;1593868;74;726;-72
2022/06/24 03:36:25;;;;;;;;;;;26.40;47.10;;;;;;1578215;74;671;-70
2022/06/24 03:38:27;;;;;;;;;;;26.40;47.10;;;;;;1579000;73;1331;-71
2022/06/24 03:40:29;;;;;;;;;;;26.40;47.10;;;;;;1596484;73;1937;-72
2022/06/24 03:42:31;;;;;;;;;;;26.40;47.10;;;;;;1590164;73;681;-71
2022/06/24 03:44:33;;;;;;;;;;;26.40;47.10;;;;;;1579162;73;663;-72
2022/06/24 03:46:35;;;;;;;;;;;26.40;47.10;;;;;;1588074;73;552;-70
2022/06/24 03:48:37;;;;;;;;;;;26.40;47.10;;;;;;1592677;73;1429;-70
2022/06/24 03:50:39;;;;;;;;;;;26.50;47.10;;;;;;1570381;73;678;-72
2022/06/24 03:52:41;;;;;;;;;;;26.50;47.10;;;;;;1587991;73;662;-70
2022/06/24 03:54:43;;;;;;;;;;;26.40;47.10;;;;;;1570703;73;621;-72
2022/06/24 03:56:45;;;;;;;;;;;26.50;47.10;;;;;;1592514;73;646;-72
2022/06/24 03:58:46;;;;;;;;;;;26.40;47.10;;;;;;1593122;73;1166;-71
2022/06/24 04:00:48;;;;;;;;;;;26.40;47.10;;;;;;1590666;73;1945;-71
2022/06/24 04:02:50;;;;;;;;;;;26.40;47.10;;;;;;1597664;73;662;-71
2022/06/24 04:04:52;;;;;;;;;;;26.40;47.10;;;;;;1585524;73;592;-72
2022/06/24 04:06:54;;;;;;;;;;;26.40;47.10;;;;;;1579171;73;681;-72
2022/06/24 04:08:56;;;;;;;;;;;26.40;47.10;;;;;;1592389;73;1128;-71
2022/06/24 04:10:58;;;;;;;;;;;26.40;47.10;;;;;;1589113;74;678;-72
2022/06/24 04:13:00;;;;;;;;;;;26.40;47.10;;;;;;1586167;73;697;-70
2022/06/24 04:15:14;;;;;;;;;;;26.40;47.10;;;;;;1587299;73;753;-71
2022/06/24 04:17:16;;;;;;;;;;;26.40;47.10;;;;;;1583336;73;657;-73
2022/06/24 04:19:18;;;;;;;;;;;26.40;47.10;;;;;;1590991;73;1159;-72
2022/06/24 04:21:19;;;;;;;;;;;26.40;47.10;;;;;;1573343;74;1939;-72
2022/06/24 04:23:21;;;;;;;;;;;26.40;47.10;;;;;;1582672;73;647;-74
2022/06/24 04:25:23;;;;;;;;;;;26.40;47.10;;;;;;1583545;73;648;-72
2022/06/24 04:27:25;;;;;;;;;;;26.40;47.10;;;;;;1578543;73;680;-71
2022/06/24 04:29:27;;;;;;;;;;;26.40;47.10;;;;;;1586865;73;1160;-71
2022/06/24 04:31:29;;;;;;;;;;;26.40;47.10;;;;;;1583116;73;734;-73
2022/06/24 04:33:31;;;;;;;;;;;26.40;47.10;;;;;;1594653;73;647;-72
2022/06/24 04:35:33;;;;;;;;;;;26.40;47.10;;;;;;1584981;73;1468;-72
2022/06/24 04:37:41;;;;;;;;;;;26.40;47.10;;;;;;1588069;73;883;-72
2022/06/24 04:39:44;;;;;;;;;;;26.40;47.10;;;;;;1595033;73;1100;-73
2022/06/24 04:41:46;;;;;;;;;;;26.40;47.10;;;;;;1577103;73;1898;-71
2022/06/24 04:43:48;;;;;;;;;;;26.50;47.10;;;;;;1577607;73;715;-70
2022/06/24 04:45:50;;;;;;;;;;;26.40;47.10;;;;;;1568201;73;752;-71
2022/06/24 04:47:52;;;;;;;;;;;26.40;47.10;;;;;;1578120;73;635;-71
2022/06/24 04:49:53;;;;;;;;;;;26.40;47.10;;;;;;1587551;73;1117;-70
2022/06/24 04:51:55;;;;;;;;;;;26.40;47.10;;;;;;1589629;73;676;-71
2022/06/24 04:53:57;;;;;;;;;;;26.40;47.10;;;;;;1575253;73;909;-71
2022/06/24 04:55:59;;;;;;;;;;;26.40;47.10;;;;;;1579483;73;687;-71
2022/06/24 04:58:01;;;;;;;;;;;26.40;47.10;;;;;;1572681;73;623;-71
2022/06/24 05:00:04;;;;;;;;;;;26.40;47.10;;;;;;1581003;73;1103;-71
2022/06/24 05:02:05;;;;;;;;;;;26.40;47.10;;;;;;1592518;73;1924;-72
2022/06/24 05:04:07;;;;;;;;;;;26.40;47.10;;;;;;1599054;73;645;-71
2022/06/24 05:06:09;;;;;;;;;;;26.40;47.10;;;;;;1582887;74;681;-71
2022/06/24 05:08:11;;;;;;;;;;;26.40;47.10;;;;;;1583801;75;720;-72
2022/06/24 05:10:13;;;;;;;;;;;26.50;47.10;;;;;;1584578;73;1143;-73
2022/06/24 05:12:15;;;;;;;;;;;26.40;47.10;;;;;;1580694;73;784;-69
2022/06/24 05:14:17;;;;;;;;;;;26.40;47.10;;;;;;1580119;73;607;-71
2022/06/24 05:16:19;;;;;;;;;;;26.40;47.10;;;;;;1573556;73;595;-71
2022/06/24 05:18:21;;;;;;;;;;;26.40;47.10;;;;;;1576563;73;1120;-71
2022/06/24 05:20:23;;;;;;;;;;;26.40;47.10;;;;;;1595115;73;928;-72
2022/06/24 05:22:24;;;;;;;;;;;26.40;47.10;;;;;;1598039;73;1940;-72
2022/06/24 05:24:26;;;;;;;;;;;26.40;47.10;;;;;;1584744;73;610;-72
2022/06/24 05:26:28;;;;;;;;;;;26.40;47.10;;;;;;1575849;73;733;-73
2022/06/24 05:28:30;;;;;;;;;;;26.40;47.10;;;;;;1573028;73;1158;-71
2022/06/24 05:30:32;;;;;;;;;;;26.40;47.20;;;;;;1583879;73;1548;-70
2022/06/24 05:32:34;;;;;;;;;;;26.40;47.10;;;;;;1578291;73;657;-72
2022/06/24 05:34:36;;;;;;;;;;;26.40;47.10;;;;;;1603095;73;671;-72
2022/06/24 05:36:38;;;;;;;;;;;26.40;47.10;;;;;;1584402;73;610;-71
2022/06/24 05:38:39;;;;;;;;;;;26.40;47.10;;;;;;1573758;73;1138;-72
2022/06/24 05:40:41;;;;;;;;;;;26.40;47.10;;;;;;1569160;73;1927;-73
2022/06/24 05:42:43;;;;;;;;;;;26.40;47.10;;;;;;1585733;73;874;-71
2022/06/24 05:44:45;;;;;;;;;;;26.40;47.10;;;;;;1587659;73;673;-72
2022/06/24 05:46:47;;;;;;;;;;;26.40;47.20;;;;;;1580068;73;639;-71
2022/06/24 05:48:49;;;;;;;;;;;26.40;47.10;;;;;;1584298;73;1181;-72
2022/06/24 05:50:51;;;;;;;;;;;26.50;47.10;;;;;;1576690;73;704;-72
2022/06/24 05:55:13;;;;;;;;;;;26.40;47.10;;;;;;1585723;73;569;-73
2022/06/24 05:57:14;;;;;;;;;;;26.40;47.10;;;;;;1592913;73;764;-72
2022/06/24 05:59:16;;;;;;;;;;;26.50;47.20;;;;;;1579651;73;1154;-71
2022/06/24 06:01:18;;;;;;;;;;;26.40;47.10;;;;;;1575045;73;1911;-71
2022/06/24 06:03:20;;;;;;;;;;;26.40;47.10;;;;;;1601783;73;652;-72
2022/06/24 06:05:22;;;;;;;;;;;26.40;47.10;;;;;;1604094;73;717;-72
2022/06/24 06:07:25;;;;;;;;;;;26.40;47.20;;;;;;1593474;73;565;-72
2022/06/24 06:09:26;;;;;;;;;;;26.40;47.20;;;;;;1597652;73;1273;-68
2022/06/24 06:11:28;;;;;;;;;;;26.40;47.20;;;;;;1590896;73;776;-72
2022/06/24 06:13:30;;;;;;;;;;;26.40;47.10;;;;;;1574821;73;688;-73
2022/06/24 06:15:32;;;;;;;;;;;26.40;47.20;;;;;;1590602;73;720;-72
2022/06/24 06:17:34;;;;;;;;;;;26.40;47.20;;;;;;1578608;73;732;-71
2022/06/24 06:19:36;;;;;;;;;;;26.40;47.20;;;;;;1598729;73;1132;-71
2022/06/24 06:21:38;;;;;;;;;;;26.50;47.20;;;;;;1587268;73;1934;-71
2022/06/24 06:23:40;;;;;;;;;;;26.50;47.20;;;;;;1582844;73;658;-71
2022/06/24 06:25:42;;;;;;;;;;;26.40;47.20;;;;;;1581966;73;689;-71
2022/06/24 06:27:44;;;;;;;;;;;26.50;47.20;;;;;;1584900;73;1448;-71
2022/06/24 06:29:46;;;;;;;;;;;26.40;47.20;;;;;;1583407;73;1118;-72
2022/06/24 06:31:49;;;;;;;;;;;26.40;47.20;;;;;;1588110;73;715;-71
2022/06/24 06:33:51;;;;;;;;;;;26.40;47.20;;;;;;1595828;73;720;-72
2022/06/24 06:35:53;;;;;;;;;;;26.40;47.30;;;;;;1586985;73;753;-71
2022/06/24 06:37:55;;;;;;;;;;;26.40;47.20;;;;;;1546242;75;1180;-71
2022/06/24 06:39:57;;;;;;;;;;;26.40;47.20;;;;;;1574343;75;1134;-72
2022/06/24 06:41:58;;;;;;;;;;;26.40;47.20;;;;;;1580606;73;1950;-72
2022/06/24 06:44:00;;;;;;;;;;;26.40;47.20;;;;;;1601138;73;721;-72
2022/06/24 06:46:02;;;;;;;;;;;26.50;47.20;;;;;;1586578;73;698;-71
2022/06/24 06:48:04;;;;;;;;;;;26.40;47.20;;;;;;1578194;73;721;-72
2022/06/24 06:50:06;;;;;;;;;;;26.40;47.20;;;;;;1589484;73;1101;-71
2022/06/24 06:52:08;;;;;;;;;;;26.40;47.20;;;;;;1583439;73;695;-72
2022/06/24 06:54:11;;;;;;;;;;;26.50;47.30;;;;;;1585168;73;676;-71
2022/06/24 06:56:13;;;;;;;;;;;26.40;47.20;;;;;;1576416;73;666;-71
2022/06/24 06:58:15;;;;;;;;;;;26.40;47.20;;;;;;1582700;73;652;-72
2022/06/24 07:00:17;;;;;;;;;;;26.50;47.20;;;;;;1590833;73;673;-72
2022/06/24 07:02:19;;;;;;;;;;;26.50;47.20;;;;;;1580572;73;1934;-72
2022/06/24 07:04:21;;;;;;;;;;;26.40;47.20;;;;;;1603020;73;700;-72
2022/06/24 07:06:24;;;;;;;;;;;26.40;47.20;;;;;;1585367;73;688;-72
2022/06/24 07:08:26;;;;;;;;;;;26.50;47.30;;;;;;1581392;73;1112;-72
2022/06/24 07:10:27;;;;;;;;;;;26.40;47.20;;;;;;1532019;72;2143;-63
2022/06/24 07:12:30;;;;;;;;;;;26.40;47.20;;;;;;1508866;77;753;-64
2022/06/24 07:14:31;;;;;;;;;;;26.40;47.20;;;;;;1505393;77;711;-67
2022/06/24 07:16:33;;;;;;;;;;;26.40;47.30;;;;;;1531877;76;643;-68
2022/06/24 07:18:35;;;;;;;;;;;26.40;47.30;;;;;;1507007;77;702;-68
2022/06/24 07:20:37;;;;;;;;;;;26.40;47.30;;;;;;1492277;78;1173;-68
2022/06/24 07:22:39;;;;;;;;;;;26.40;47.20;;;;;;1482242;78;1948;-67
2022/06/24 07:24:41;;;;;;;;;;;26.40;47.30;;;;;;1489118;78;1536;-68
2022/06/24 07:26:43;;;;;;;;;;;26.50;47.20;;;;;;1510585;77;733;-67
2022/06/24 07:28:45;;;;;;;;;;;26.40;47.20;;;;;;1507416;76;735;-68
2022/06/24 07:30:47;;;;;;;;;;;26.40;47.30;;;;;;1486338;78;1109;-67
2022/06/24 07:32:49;;;;;;;;;;;26.40;47.20;;;;;;1496092;78;769;-68
2022/06/24 07:34:51;;;;;;;;;;;26.40;47.20;;;;;;1499585;78;751;-68
2022/06/24 07:36:53;;;;;;;;;;;26.50;47.20;;;;;;1518071;76;757;-68
2022/06/24 07:38:55;;;;;;;;;;;26.40;47.20;;;;;;1501210;78;1147;-67
2022/06/24 07:40:57;;;;;;;;;;;26.40;47.30;;;;;;1487227;78;872;-67
2022/06/24 07:42:59;;;;;;;;;;;26.50;47.20;;;;;;1519302;77;1918;-68
2022/06/24 07:45:01;;;;;;;;;;;26.40;47.20;;;;;;1515140;76;703;-68
2022/06/24 07:47:03;;;;;;;;;;;26.40;47.10;;;;;;1484717;77;676;-67
2022/06/24 07:49:05;;;;;;;;;;;26.40;47.20;;;;;;1487612;78;1112;-67
2022/06/24 07:51:10;;;;;;;;;;;26.40;47.20;;;;;;1523432;76;759;-67
2022/06/24 07:53:12;;;;;;;;;;;26.40;47.20;;;;;;1491131;78;732;-68
2022/06/24 07:57:33;;;;;;;;;;;26.50;47.20;;;;;;1475029;78;1639;-67
2022/06/24 07:59:36;;;;;;;;;;;26.40;47.20;;;;;;1515574;76;1210;-67
2022/06/24 08:01:37;;;;;;;;;;;26.40;47.30;;;;;;1486780;78;1927;-68
2022/06/24 08:03:39;;;;;;;;;;;26.40;47.30;;;;;;1495350;78;721;-67
2022/06/24 08:05:41;;;;;;;;;;;26.40;47.20;;;;;;1524988;76;660;-65
2022/06/24 08:07:46;;;;;;;;;;;26.50;47.20;;;;;;1493323;78;739;-68
2022/06/24 08:09:48;;;;;;;;;;;26.40;47.30;;;;;;1489088;78;1178;-68
2022/06/24 08:11:50;;;;;;;;;;;26.40;47.20;;;;;;1508247;78;907;-68
2022/06/24 08:13:52;;;;;;;;;;;26.50;47.20;;;;;;1486646;78;807;-67
2022/06/24 08:15:54;;;;;;;;;;;26.40;47.20;;;;;;1491495;78;769;-67
2022/06/24 08:17:56;;;;;;;;;;;26.50;47.20;;;;;;1519973;76;685;-68
2022/06/24 08:19:58;;;;;;;;;;;26.40;47.20;;;;;;1496487;78;1482;-68
2022/06/24 08:22:00;;;;;;;;;;;26.50;47.20;;;;;;1501186;78;1941;-68
2022/06/24 08:24:02;;;;;;;;;;;26.40;47.20;;;;;;1496935;78;777;-68
2022/06/24 08:26:05;;;;;;;;;;;26.50;47.20;;;;;;1490012;78;808;-68
2022/06/24 08:28:07;;;;;;;;;;;26.40;47.20;;;;;;1520651;77;638;-66
2022/06/24 08:30:09;;;;;;;;;;;26.50;47.20;;;;;;1527474;76;1164;-69
2022/06/24 08:32:11;;;;;;;;;;;26.40;47.20;;;;;;1495599;78;732;-67
2022/06/24 08:34:13;;;;;;;;;;;26.50;47.20;;;;;;1520808;76;885;-69
2022/06/24 08:36:15;;;;;;;;;;;26.40;47.20;;;;;;1491329;78;769;-66
2022/06/24 08:38:18;;;;;;;;;;;26.40;47.20;;;;;;1508859;76;679;-68
2022/06/24 08:40:20;;;;;;;;;;;26.40;47.20;;;;;;1492355;78;1185;-66
2022/06/24 08:42:22;;;;;;;;;;;26.40;47.30;;;;;;1492928;78;1946;-67
2022/06/24 08:44:24;;;;;;;;;;;26.40;47.20;;;;;;1490267;78;770;-67
2022/06/24 08:46:26;;;;;;;;;;;26.40;47.30;;;;;;1488734;78;823;-67
2022/06/24 08:48:28;;;;;;;;;;;26.40;47.30;;;;;;1531632;76;713;-67
2022/06/24 08:50:30;;;;;;;;;;;26.40;47.30;;;;;;1519797;76;1137;-64
2022/06/24 08:52:32;;;;;;;;;;;26.40;47.20;;;;;;1527268;76;740;-66
2022/06/24 08:54:33;;;;;;;;;;;26.40;47.20;;;;;;1519765;76;685;-67
2022/06/24 08:56:35;;;;;;;;;;;26.40;47.30;;;;;;1518327;76;680;-66
2022/06/24 08:58:37;;;;;;;;;;;26.40;47.30;;;;;;1524485;76;749;-67
2022/06/24 09:00:39;;;;;;;;;;;26.40;47.30;;;;;;1474380;78;1163;-67
2022/06/24 09:02:41;;;;;;;;;;;26.40;47.30;;;;;;1525104;76;1913;-66
2022/06/24 09:04:43;;;;;;;;;;;26.40;47.30;;;;;;1497437;78;770;-65
2022/06/24 09:06:45;;;;;;;;;;;26.40;47.30;;;;;;1521079;76;779;-66
2022/06/24 09:08:53;;;;;;;;;;;26.40;47.30;;;;;;1494680;78;673;-66
2022/06/24 09:11:10;;;;;;;;;;;26.40;47.30;;;;;;1515229;77;821;-66
2022/06/24 09:13:21;;;;;;;;;;;26.40;47.30;;;;;;1518869;76;689;-67
2022/06/24 09:15:23;;;;;;;;;;;26.40;47.30;;;;;;1487682;78;850;-65
2022/06/24 09:17:32;;;;;;;;;;;26.40;47.30;;;;;;1483078;78;1205;-67
2022/06/24 09:19:34;;;;;;;;;;;26.40;47.30;;;;;;1520993;76;1177;-67
2022/06/24 09:21:40;;;;;;;;;;;26.50;47.20;;;;;;1521187;76;673;-66
2022/06/24 09:23:53;;;;;;;;;;;26.40;47.30;;;;;;1486778;78;1923;-66
2022/06/24 09:26:04;;;;;;;;;;;26.40;47.20;;;;;;1513651;76;1718;-66
2022/06/24 09:28:03;;;;;;;;;;;26.40;47.20;;;;;;1484455;78;1185;-67
2022/06/24 09:30:05;;;;;;;;;;;26.40;47.20;;;;;;1482825;78;1189;-67
2022/06/24 09:32:09;;;;;;;;;;;26.40;47.30;;;;;;1517122;77;806;-67
2022/06/24 09:34:12;;;;;;;;;;;26.40;47.30;;;;;;1487237;78;803;-66
2022/06/24 09:36:14;;;;;;;;;;;26.40;47.20;;;;;;1479585;78;2172;-67
2022/06/24 09:38:16;;;;;;;;;;;26.40;47.20;;;;;;1480706;78;683;-66
2022/06/24 09:40:31;;;;;;;;;;;26.40;47.20;;;;;;1480409;78;1137;-66
2022/06/24 09:42:33;;;;;;;;;;;26.40;47.10;;;;;;1512732;76;1914;-67
2022/06/24 09:44:44;;;;;;;;;;;26.40;47.10;;;;;;1496552;78;776;-67
2022/06/24 09:46:46;;;;;;;;;;;26.40;47.10;;;;;;1483735;78;677;-68
2022/06/24 09:48:50;;;;;;;;;;;26.40;47.10;;;;;;1520268;76;683;-66
2022/06/24 09:50:52;;;;;;;;;;;26.40;47.20;;;;;;1519774;76;1713;-67
2022/06/24 09:52:54;;;;;;;;;;;26.40;47.10;;;;;;1489450;78;791;-66
2022/06/24 09:54:56;;;;;;;;;;;26.40;47.10;;;;;;1515412;76;648;-64
2022/06/24 09:56:58;;;;;;;;;;;26.40;47.10;;;;;;1491134;78;590;-65
2022/06/24 10:01:20;;;;;;;;;;;26.40;47.10;;;;;;1512291;76;1619;-67
2022/06/24 10:03:22;;;;;;;;;;;26.40;47.10;;;;;;1501604;78;1933;-67
2022/06/24 10:05:23;;;;;;;;;;;26.50;47.10;;;;;;1496338;77;665;-66
2022/06/24 10:07:25;;;;;;;;;;;26.40;47.10;;;;;;1505298;78;782;-66
2022/06/24 10:09:29;;;;;;;;;;;26.40;47.10;;;;;;1510588;78;1130;-66
2022/06/24 10:11:33;;;;;;;;;;;26.50;47.10;;;;;;1493074;78;760;-66
2022/06/24 10:13:35;;;;;;;;;;;26.50;47.10;;;;;;1505778;77;1587;-67
2022/06/24 10:15:37;;;;;;;;;;;26.40;47.10;;;;;;1507107;77;694;-67
2022/06/24 10:17:39;;;;;;;;;;;26.40;47.00;;;;;;1509467;77;828;-66
2022/06/24 10:19:40;;;;;;;;;;;26.40;47.00;;;;;;1515269;76;1154;-66
2022/06/24 10:21:42;;;;;;;;;;;26.40;47.10;;;;;;1515750;76;770;-66
2022/06/24 10:23:48;;;;;;;;;;;26.40;47.00;;;;;;1517130;76;1933;-66
2022/06/24 10:25:51;;;;;;;;;;;26.50;47.00;;;;;;1508786;77;729;-67
2022/06/24 10:28:00;;;;;;;;;;;26.40;46.90;;;;;;1510843;76;732;-66
2022/06/24 10:30:03;;;;;;;;;;;26.40;47.00;;;;;;1486948;78;1149;-66
2022/06/24 10:32:05;;;;;;;;;;;26.40;47.00;;;;;;1494909;78;698;-63
2022/06/24 10:34:07;;;;;;;;;;;26.50;47.00;;;;;;1503716;78;704;-67
2022/06/24 10:36:09;;;;;;;;;;;26.50;47.00;;;;;;1497362;78;824;-65
2022/06/24 10:38:11;;;;;;;;;;;26.40;47.00;;;;;;1516360;77;711;-64
2022/06/24 10:40:14;;;;;;;;;;;26.50;46.90;;;;;;1510112;77;1166;-66
2022/06/24 10:42:20;;;;;;;;;;;26.40;47.00;;;;;;1513155;77;1882;-66
2022/06/24 10:44:23;;;;;;;;;;;26.50;46.90;;;;;;1522843;76;1917;-67
2022/06/24 10:46:25;;;;;;;;;;;26.40;46.90;;;;;;1477654;78;792;-67
2022/06/24 10:48:34;;;;;;;;;;;26.50;46.90;;;;;;1519383;76;665;-67
2022/06/24 10:50:36;;;;;;;;;;;26.50;46.90;;;;;;1503246;76;1158;-67
2022/06/24 10:52:51;;;;;;;;;;;26.50;47.00;;;;;;1523776;77;683;-66
2022/06/24 10:54:55;;;;;;;;;;;26.50;46.90;;;;;;1506538;77;619;-67
2022/06/24 10:56:59;;;;;;;;;;;26.50;46.90;;;;;;1490361;77;1137;-66
2022/06/24 10:59:00;;;;;;;;;;;26.40;46.90;;;;;;1514670;77;1523;-66
2022/06/24 11:01:02;;;;;;;;;;;26.50;46.90;;;;;;1512396;76;708;-66
2022/06/24 11:03:05;;;;;;;;;;;26.40;46.90;;;;;;1469011;78;1956;-66
2022/06/24 11:05:10;;;;;;;;;;;26.40;46.90;;;;;;1567256;75;810;-65
2022/06/24 11:07:13;;;;;;;;;;;26.40;46.90;;;;;;1518275;76;805;-67
2022/06/24 11:09:16;;;;;;;;;;;26.50;46.80;;;;;;1522815;76;1548;-68
2022/06/24 11:11:30;;;;;;;;;;;26.60;46.80;;;;;;1505397;77;759;-67
2022/06/24 11:13:32;;;;;;;;;;;26.60;46.70;;;;;;1510635;76;682;-67
2022/06/24 11:15:37;;;;;;;;;;;26.60;46.70;;;;;;1511428;77;703;-66
2022/06/24 11:17:41;;;;;;;;;;;26.60;46.70;;;;;;1506582;77;759;-67
2022/06/24 11:19:43;;;;;;;;;;;26.60;46.60;;;;;;1515077;76;1169;-67
2022/06/24 11:21:46;;;;;;;;;;;26.60;46.50;;;;;;1493419;78;721;-67
2022/06/24 11:23:48;;;;;;;;;;;26.60;46.60;;;;;;1510863;77;1928;-67
2022/06/24 11:25:51;;;;;;;;;;;26.60;46.50;;;;;;1509723;77;733;-66
2022/06/24 11:27:53;;;;;;;;;;;26.70;46.60;;;;;;1512072;76;711;-66
2022/06/24 11:30:00;;;;;;;;;;;26.70;46.50;;;;;;1513773;77;1089;-67
2022/06/24 11:32:02;;;;;;;;;;;26.60;46.50;;;;;;1515255;77;752;-67
2022/06/24 11:34:06;;;;;;;;;;;26.60;46.50;;;;;;1505942;77;741;-66
2022/06/24 11:36:08;;;;;;;;;;;26.70;46.50;;;;;;1512341;77;631;-68
2022/06/24 11:38:10;;;;;;;;;;;26.70;46.50;;;;;;1517688;77;686;-67
2022/06/24 11:40:13;;;;;;;;;;;26.60;46.50;;;;;;1513160;76;1153;-67
2022/06/24 11:42:16;;;;;;;;;;;26.70;46.40;;;;;;1494630;77;1638;-69
2022/06/24 11:44:17;;;;;;;;;;;26.70;46.30;;;;;;1500895;77;1931;-68
2022/06/24 11:46:19;;;;;;;;;;;26.70;46.20;;;;;;1482752;78;1163;-67
2022/06/24 11:48:22;;;;;;;;;;;26.70;46.20;;;;;;1552501;75;681;-67
2022/06/24 11:50:24;;;;;;;;;;;26.70;46.20;;;;;;1546239;75;1145;-67
2022/06/24 11:52:25;;;;;;;;;;;26.80;46.10;;;;;;1521515;76;642;-67
2022/06/24 11:54:28;;;;;;;;;;;26.70;46.00;;;;;;1519822;77;687;-68
2022/06/24 11:56:31;;;;;;;;;;;26.70;46.10;;;;;;1519788;77;643;-67
2022/06/24 11:58:35;;;;;;;;;;;26.70;46.20;;;;;;1516633;77;688;-66
2022/06/24 12:00:40;;;;;;;;;;;26.70;46.20;;;;;;1513383;77;1132;-67
2022/06/24 12:02:42;;;;;;;;;;;26.70;46.20;;;;;;1510902;77;571;-67
2022/06/24 12:04:47;;;;;;;;;;;26.60;46.20;;;;;;1536285;76;1941;-66
2022/06/24 12:06:47;;;;;;;;;;;26.60;46.20;;;;;;1532654;76;1685;-68
2022/06/24 12:08:49;;;;;;;;;;;26.60;46.30;;;;;;1506947;76;760;-66
2022/06/24 12:10:52;;;;;;;;;;;26.60;46.30;;;;;;1513381;76;1219;-68
2022/06/24 12:12:57;;;;;;;;;;;26.60;46.40;;;;;;1514199;76;819;-68
2022/06/24 12:14:59;;;;;;;;;;;26.60;46.40;;;;;;1527166;76;712;-64
2022/06/24 12:17:03;;;;;;;;;;;26.50;46.30;;;;;;1530527;76;708;-67
2022/06/24 12:19:08;;;;;;;;;;;26.50;46.40;;;;;;1522136;76;1184;-67
2022/06/24 12:21:10;;;;;;;;;;;26.60;46.50;;;;;;1521222;76;686;-68
2022/06/24 12:23:13;;;;;;;;;;;26.60;46.50;;;;;;1523774;76;1903;-67